Terminal Aerodrome Forecast
Issued by NWS Denver/Boulder, CO

Home | Current Version | Previous Version | Text Only | Print | Product List | Glossary On
Versions: 1 2 3 4 5 6 7 8 9 10 11 12 13 14 15 16 17 18 19 20 21 22 23 24 25 26 27 28 29 30 31 32 33 34 35 36 37 38 39 40 41 42 43 44 45 46 47 48 49 50
971
FTUS45 KBOU 031501 AAC
TAFDEN
TAF AMD
KDEN 031501Z 0315/0418 23006KT P6SM FEW006 SCT200
      TEMPO 0315/0316 3SM BR BKN006
     FM031800 VRB05KT P6SM FEW120 BKN200
     FM032200 08006KT P6SM SCT120 BKN200
     FM040100 15008KT P6SM FEW120 SCT200
     FM040300 20009KT P6SM FEW200=

USA.gov is the U.S. government's official web portal to all federal, state and local government web resources and services.